createdAt,value
2019-02-26T00:00:52.397Z,5.70
2019-02-26T00:03:41.087Z,5.50
2019-02-26T00:06:30.223Z,5.50
2019-02-26T00:09:22.414Z,5.40
2019-02-26T00:12:08.819Z,5.40
2019-02-26T00:14:59.530Z,5.50
2019-02-26T00:17:49.031Z,5.40
2019-02-26T00:20:38.936Z,5.20
2019-02-26T00:23:27.909Z,5.20
2019-02-26T00:26:17.648Z,5.20
2019-02-26T00:29:06.629Z,5.20
2019-02-26T00:31:57.072Z,5.20
2019-02-26T00:34:45.111Z,5.20
2019-02-26T00:37:33.679Z,5.20
2019-02-26T00:40:22.075Z,5.20
2019-02-26T00:43:10.340Z,5.10
2019-02-26T00:46:00.651Z,5.20
2019-02-26T00:48:47.920Z,5.20
2019-02-26T00:51:35.940Z,5.10
2019-02-26T00:54:26.287Z,5.10
2019-02-26T00:57:14.499Z,5.10
2019-02-26T01:00:03.400Z,5.00
2019-02-26T01:02:52.275Z,5.00
2019-02-26T01:05:40.915Z,5.00
2019-02-26T01:08:29.976Z,4.90
2019-02-26T01:11:19.489Z,4.90
2019-02-26T01:14:08.314Z,4.90
2019-02-26T01:16:56.238Z,4.80
2019-02-26T01:19:44.641Z,4.80
2019-02-26T01:22:33.069Z,4.90
2019-02-26T01:25:22.931Z,5.00
2019-02-26T01:28:14.100Z,4.90
2019-02-26T01:31:02.592Z,4.80
2019-02-26T01:33:52.889Z,4.70
2019-02-26T01:36:42.563Z,4.70
2019-02-26T01:39:29.867Z,4.60
2019-02-26T01:42:22.352Z,4.60
2019-02-26T01:45:09.715Z,4.50
2019-02-26T01:47:57.563Z,4.50
2019-02-26T01:50:45.487Z,4.50
2019-02-26T01:53:34.192Z,4.60
2019-02-26T01:56:22.801Z,4.50
2019-02-26T01:59:11.009Z,4.40
2019-02-26T02:01:58.846Z,4.40
2019-02-26T02:04:47.392Z,4.40
2019-02-26T02:07:35.674Z,4.50
2019-02-26T02:10:23.777Z,4.40
2019-02-26T02:13:11.787Z,4.30
2019-02-26T02:16:02.040Z,4.30
2019-02-26T02:18:51.241Z,4.30
2019-02-26T02:21:39.107Z,4.20
2019-02-26T02:24:27.024Z,4.20
2019-02-26T02:27:19.594Z,4.20
2019-02-26T02:30:14.165Z,4.30
2019-02-26T02:33:00.072Z,4.20
2019-02-26T02:35:48.153Z,4.10
2019-02-26T02:38:37.120Z,4.20
2019-02-26T02:41:25.394Z,4.10
2019-02-26T02:44:15.425Z,4.20
2019-02-26T02:47:04.303Z,4.10
2019-02-26T02:49:53.470Z,4.00
2019-02-26T02:52:41.807Z,4.20
2019-02-26T02:55:30.475Z,4.10
2019-02-26T02:58:20.831Z,4.10
2019-02-26T03:01:08.554Z,4.10
2019-02-26T03:04:00.552Z,4.10
2019-02-26T03:06:46.787Z,4.00
2019-02-26T03:09:37.740Z,4.00
2019-02-26T03:12:24.887Z,3.90
2019-02-26T03:15:13.287Z,4.00
2019-02-26T03:18:01.060Z,4.00
2019-02-26T03:20:51.201Z,3.90
2019-02-26T03:23:41.226Z,3.90
2019-02-26T03:26:29.139Z,3.90
2019-02-26T03:29:17.363Z,3.90
2019-02-26T03:32:05.389Z,3.80
2019-02-26T03:34:53.909Z,3.80
2019-02-26T03:37:42.036Z,3.80
2019-02-26T03:40:33.119Z,3.60
2019-02-26T03:43:19.671Z,3.60
2019-02-26T03:46:07.869Z,3.60
2019-02-26T03:48:55.955Z,3.60
2019-02-26T03:51:44.276Z,3.70
2019-02-26T03:54:32.179Z,3.70
2019-02-26T03:57:22.683Z,3.70
2019-02-26T04:00:14.118Z,3.60
2019-02-26T04:03:03.351Z,3.60
2019-02-26T04:05:50.855Z,3.60
2019-02-26T04:08:38.712Z,3.50
2019-02-26T04:11:27.735Z,3.40
2019-02-26T04:14:18.101Z,3.40
2019-02-26T04:17:07.007Z,3.50
2019-02-26T04:19:56.639Z,3.50
2019-02-26T04:22:48.985Z,3.40
2019-02-26T04:26:15.933Z,3.40
2019-02-26T04:29:17.520Z,3.40
2019-02-26T04:32:46.301Z,3.30
2019-02-26T04:35:57.750Z,3.30
2019-02-26T04:39:28.737Z,3.40
2019-02-26T04:42:48.899Z,3.40
2019-02-26T04:46:02.231Z,3.40
2019-02-26T04:48:49.836Z,3.40
2019-02-26T04:51:39.883Z,3.40
2019-02-26T04:54:31.199Z,3.40
2019-02-26T04:57:18.071Z,3.30
2019-02-26T05:00:07.854Z,3.20
2019-02-26T05:02:55.831Z,3.30
2019-02-26T05:05:43.355Z,3.30
2019-02-26T05:08:32.924Z,3.30
2019-02-26T05:11:31.496Z,3.50
2019-02-26T05:14:11.746Z,3.50
2019-02-26T05:17:00.860Z,3.40
2019-02-26T05:19:51.091Z,3.40
2019-02-26T05:22:38.166Z,3.30
2019-02-26T05:25:26.387Z,3.30
2019-02-26T05:28:15.637Z,3.30
2019-02-26T05:31:06.399Z,3.30
2019-02-26T05:33:55.396Z,3.30
2019-02-26T05:36:46.244Z,3.40
2019-02-26T05:39:33.278Z,3.40
2019-02-26T05:42:21.679Z,3.40
2019-02-26T05:45:09.577Z,3.30
2019-02-26T05:47:58.924Z,3.40
2019-02-26T05:50:47.088Z,3.40
2019-02-26T05:53:35.464Z,3.40
2019-02-26T05:56:23.396Z,3.30
2019-02-26T05:59:13.308Z,3.20
2019-02-26T06:02:01.565Z,3.10
2019-02-26T06:04:50.032Z,3.00
2019-02-26T06:07:38.843Z,2.90
2019-02-26T06:10:27.197Z,2.80
2019-02-26T06:13:15.861Z,2.80
2019-02-26T06:16:05.377Z,2.90
2019-02-26T06:18:54.449Z,2.80
2019-02-26T06:21:44.728Z,2.80
2019-02-26T06:24:33.179Z,2.70
2019-02-26T06:27:24.757Z,2.80
2019-02-26T06:30:13.139Z,2.90
2019-02-26T06:33:04.127Z,2.90
2019-02-26T06:35:51.496Z,3.00
2019-02-26T06:38:39.696Z,2.90
2019-02-26T06:41:27.590Z,2.90
2019-02-26T06:44:16.100Z,2.90
2019-02-26T06:47:04.792Z,2.90
2019-02-26T06:49:53.671Z,2.90
2019-02-26T06:52:42.895Z,2.90
2019-02-26T06:55:30.515Z,2.80
2019-02-26T06:58:26.343Z,2.90
2019-02-26T07:01:16.520Z,3.00
2019-02-26T07:04:04.486Z,3.10
2019-02-26T07:06:55.215Z,3.20
2019-02-26T07:09:43.830Z,3.40
2019-02-26T07:12:32.576Z,3.50
2019-02-26T07:15:20.447Z,3.60
2019-02-26T07:18:10.708Z,3.80
2019-02-26T07:21:00.113Z,4.00
2019-02-26T07:23:47.866Z,4.00
2019-02-26T07:26:38.173Z,4.10
2019-02-26T07:29:26.280Z,4.30
2019-02-26T07:32:14.820Z,4.40
2019-02-26T07:35:06.300Z,4.60
2019-02-26T07:37:54.615Z,4.90
2019-02-26T07:40:43.158Z,5.40
2019-02-26T07:43:31.142Z,6.40
2019-02-26T07:46:21.497Z,7.70
2019-02-26T07:49:10.269Z,9.10
2019-02-26T07:52:00.118Z,10.10
2019-02-26T07:54:49.484Z,10.70
2019-02-26T07:57:37.781Z,10.80
2019-02-26T08:00:25.796Z,10.10
2019-02-26T08:03:14.086Z,9.70
2019-02-26T08:06:06.283Z,9.30
2019-02-26T08:08:52.691Z,8.70
2019-02-26T08:11:42.123Z,8.20
2019-02-26T08:14:30.384Z,7.80
2019-02-26T08:17:17.956Z,8.30
2019-02-26T08:20:08.136Z,9.40
2019-02-26T08:22:56.853Z,10.60
2019-02-26T08:25:46.294Z,11.20
2019-02-26T08:28:33.920Z,11.40
2019-02-26T08:31:23.300Z,11.50
2019-02-26T08:34:13.495Z,11.00
2019-02-26T08:37:01.900Z,11.20
2019-02-26T08:43:14.042Z,10.20
2019-02-26T08:46:21.952Z,10.00
2019-02-26T08:49:26.703Z,10.00
2019-02-26T08:56:05.662Z,11.90
2019-02-26T09:06:11.006Z,17.50
2019-02-26T09:08:51.596Z,17.70
2019-02-26T09:12:17.514Z,16.90
2019-02-26T09:15:26.344Z,15.90
2019-02-26T09:18:37.543Z,14.50
2019-02-26T09:21:47.090Z,14.10
2019-02-26T09:24:56.843Z,13.90
2019-02-26T09:28:05.392Z,13.60
2019-02-26T09:31:14.090Z,13.80
2019-02-26T09:34:14.839Z,13.90
2019-02-26T09:37:16.482Z,14.40
2019-02-26T09:40:20.267Z,15.00
2019-02-26T09:43:22.547Z,15.20
2019-02-26T09:46:22.107Z,16.80
2019-02-26T09:49:24.626Z,18.50
2019-02-26T09:52:27.682Z,19.60
2019-02-26T10:08:56.021Z,20.70
2019-02-26T10:11:57.531Z,20.10
2019-02-26T10:18:13.943Z,19.90
2019-02-26T10:21:22.476Z,19.60
2019-02-26T10:28:05.756Z,21.00
2019-02-26T10:34:53.724Z,23.00
2019-02-26T10:37:56.832Z,24.20
2019-02-26T10:44:22.380Z,25.70
2019-02-26T10:47:41.726Z,25.10
2019-02-26T10:50:45.812Z,25.30
2019-02-26T10:53:44.300Z,24.90
2019-02-26T10:56:45.343Z,26.30
2019-02-26T10:59:46.927Z,26.00
2019-02-26T11:03:09.167Z,26.00
2019-02-26T11:06:14.489Z,26.30
2019-02-26T11:09:25.342Z,26.90
2019-02-26T11:12:33.427Z,26.20
2019-02-26T11:15:40.020Z,26.60
2019-02-26T11:18:47.711Z,27.60
2019-02-26T11:21:58.666Z,27.00
2019-02-26T11:27:56.844Z,27.90
2019-02-26T11:31:41.881Z,28.20
2019-02-26T11:34:46.371Z,28.00
2019-02-26T11:37:49.837Z,27.90
2019-02-26T11:57:39.724Z,29.20
2019-02-26T12:04:17.744Z,29.20
2019-02-26T12:07:19.831Z,29.50
2019-02-26T12:10:12.380Z,29.30
2019-02-26T12:13:22.343Z,30.20
2019-02-26T12:16:30.271Z,29.10
2019-02-26T12:19:42.324Z,29.50
2019-02-26T12:23:11.559Z,28.40
2019-02-26T12:26:22.313Z,29.40
2019-02-26T12:29:29.853Z,30.40
2019-02-26T12:32:37.756Z,30.30
2019-02-26T12:35:43.753Z,29.60
2019-02-26T12:42:10.568Z,30.90
2019-02-26T12:54:57.832Z,32.20
2019-02-26T13:01:24.033Z,31.40
2019-02-26T13:04:25.202Z,32.40
2019-02-26T13:07:24.791Z,31.00
2019-02-26T13:10:24.955Z,31.00
2019-02-26T13:13:25.287Z,31.10
2019-02-26T13:16:26.711Z,31.20
2019-02-26T13:19:32.670Z,31.60
2019-02-26T13:26:10.861Z,31.10
2019-02-26T13:29:13.319Z,30.80
2019-02-26T13:32:17.542Z,30.60
2019-02-26T13:35:17.863Z,31.50
2019-02-26T13:38:24.540Z,31.50
2019-02-26T13:41:29.646Z,32.50
2019-02-26T13:44:24.288Z,31.90
2019-02-26T13:47:25.183Z,31.80
2019-02-26T13:54:09.058Z,32.10
2019-02-26T14:00:48.815Z,31.20
2019-02-26T14:10:50.476Z,30.90
2019-02-26T14:17:47.515Z,30.10
2019-02-26T14:24:12.774Z,29.90
2019-02-26T14:30:19.256Z,29.00
2019-02-26T14:50:12.115Z,30.70
2019-02-26T14:53:12.840Z,30.20
2019-02-26T14:56:14.228Z,30.40
2019-02-26T14:59:15.783Z,30.20
2019-02-26T15:02:05.693Z,29.20
2019-02-26T15:05:15.669Z,29.20
2019-02-26T15:08:22.708Z,29.00
2019-02-26T15:11:29.852Z,29.00
2019-02-26T15:14:38.446Z,29.30
2019-02-26T15:17:47.095Z,29.70
2019-02-26T15:20:55.720Z,28.70
2019-02-26T15:24:03.633Z,27.60
2019-02-26T15:27:12.192Z,28.00
2019-02-26T15:30:41.743Z,27.70
2019-02-26T15:33:43.884Z,28.20
2019-02-26T15:36:45.959Z,27.90
2019-02-26T15:39:48.664Z,28.00
2019-02-26T15:42:53.084Z,27.50
2019-02-26T15:45:53.695Z,27.00
2019-02-26T15:48:55.315Z,26.60
2019-02-26T15:51:56.595Z,26.70
2019-02-26T15:54:58.319Z,26.60
2019-02-26T15:58:03.147Z,26.10
2019-02-26T16:01:03.282Z,25.30
2019-02-26T16:10:52.259Z,25.00
2019-02-26T16:13:53.571Z,24.80
2019-02-26T16:16:54.161Z,24.60
2019-02-26T16:20:15.255Z,24.10
2019-02-26T16:23:16.663Z,23.70
2019-02-26T16:26:16.851Z,22.60
2019-02-26T16:29:18.052Z,21.30
2019-02-26T16:32:19.696Z,20.10
2019-02-26T16:35:24.794Z,19.10
2019-02-26T16:38:27.186Z,18.50
2019-02-26T16:41:28.255Z,18.00
2019-02-26T16:44:29.690Z,17.60
2019-02-26T16:47:31.198Z,17.30
2019-02-26T16:50:32.631Z,17.00
2019-02-26T16:53:34.305Z,16.80
2019-02-26T16:56:35.887Z,16.50
2019-02-26T16:59:38.522Z,16.30
2019-02-26T17:02:40.387Z,16.20
2019-02-26T17:05:41.494Z,16.00
2019-02-26T17:08:44.632Z,15.80
2019-02-26T17:11:47.115Z,15.70
2019-02-26T17:14:50.474Z,15.50
2019-02-26T17:18:10.405Z,15.50
2019-02-26T17:21:12.345Z,15.30
2019-02-26T17:24:13.755Z,15.40
2019-02-26T17:27:15.080Z,15.20
2019-02-26T17:30:15.515Z,15.00
2019-02-26T17:33:16.690Z,15.30
2019-02-26T17:36:17.969Z,15.00
2019-02-26T17:39:20.272Z,14.70
2019-02-26T17:45:48.126Z,14.00
2019-02-26T17:48:49.629Z,13.70
2019-02-26T17:51:50.843Z,13.50
2019-02-26T17:54:52.698Z,13.50
2019-02-26T18:01:03.669Z,13.00
2019-02-26T18:04:05.318Z,12.90
2019-02-26T18:07:06.991Z,12.70
2019-02-26T18:20:22.868Z,12.30
2019-02-26T18:23:23.919Z,12.10
2019-02-26T18:37:11.428Z,11.70
2019-02-26T18:40:12.471Z,11.60
2019-02-26T18:43:31.932Z,11.50
2019-02-26T18:46:33.751Z,11.50
2019-02-26T18:49:33.752Z,11.50
2019-02-26T19:05:27.245Z,10.80
2019-02-26T19:11:37.211Z,10.60
2019-02-26T19:18:03.523Z,10.40
2019-02-26T19:21:04.975Z,10.40
2019-02-26T19:24:04.733Z,10.30
2019-02-26T19:27:12.944Z,10.20
2019-02-26T19:30:25.281Z,10.00
2019-02-26T19:33:34.648Z,10.10
2019-02-26T19:36:45.446Z,10.00
2019-02-26T19:39:53.372Z,9.80
2019-02-26T19:43:19.556Z,9.70
2019-02-26T19:46:28.062Z,9.70
2019-02-26T19:49:36.856Z,9.70
2019-02-26T19:52:46.875Z,9.70
2019-02-26T19:55:55.449Z,9.50
2019-02-26T19:59:04.225Z,9.40
2019-02-26T20:02:12.842Z,9.50
2019-02-26T20:05:21.424Z,9.30
2019-02-26T20:08:33.501Z,9.20
2019-02-26T20:11:42.080Z,9.10
2019-02-26T20:14:50.350Z,9.00
2019-02-26T20:18:02.371Z,8.90
2019-02-26T20:21:18.821Z,8.90
2019-02-26T20:24:25.233Z,8.90
2019-02-26T20:31:36.712Z,8.70
2019-02-26T20:34:37.641Z,8.80
2019-02-26T20:37:38.023Z,8.70
2019-02-26T20:40:39.103Z,8.60
2019-02-26T20:43:39.465Z,8.50
2019-02-26T20:46:40.781Z,8.30
2019-02-26T20:52:52.138Z,8.40
2019-02-26T20:55:57.423Z,8.20
2019-02-26T20:58:55.338Z,8.10
2019-02-26T21:01:55.395Z,8.00
2019-02-26T21:04:55.431Z,7.90
2019-02-26T21:07:57.956Z,7.90
2019-02-26T21:14:07.767Z,7.80
2019-02-26T21:17:28.103Z,7.60
2019-02-26T21:23:39.220Z,7.50
2019-02-26T21:26:40.869Z,7.50
2019-02-26T21:29:41.633Z,7.50
2019-02-26T21:33:02.253Z,7.40
2019-02-26T21:36:03.169Z,7.40
2019-02-26T21:39:04.319Z,7.40
2019-02-26T21:42:05.766Z,7.40
2019-02-26T21:45:06.027Z,7.30
2019-02-26T21:48:07.491Z,7.30
2019-02-26T21:51:11.414Z,7.40
2019-02-26T21:54:11.369Z,7.30
2019-02-26T21:57:12.275Z,7.10
2019-02-26T22:00:13.594Z,7.00
2019-02-26T22:03:15.471Z,6.90
2019-02-26T22:06:17.067Z,6.90
2019-02-26T22:09:18.658Z,6.80
2019-02-26T22:12:21.875Z,6.90
2019-02-26T22:15:22.758Z,6.90
2019-02-26T22:18:23.934Z,6.80
2019-02-26T22:21:24.848Z,6.70
2019-02-26T22:24:26.377Z,6.70
2019-02-26T22:27:27.644Z,6.70
2019-02-26T22:30:29.296Z,6.60
2019-02-26T22:33:29.359Z,6.50
2019-02-26T22:39:56.491Z,6.40
2019-02-26T22:42:58.142Z,6.30
2019-02-26T22:46:01.027Z,6.30
2019-02-26T22:49:02.856Z,6.30
2019-02-26T22:52:03.694Z,6.30
2019-02-26T22:58:14.528Z,6.10
2019-02-26T23:01:17.601Z,6.20
2019-02-26T23:04:19.656Z,6.10
2019-02-26T23:07:22.243Z,6.00
2019-02-26T23:10:24.803Z,5.90
2019-02-26T23:13:26.344Z,5.80
2019-02-26T23:16:27.708Z,5.70
2019-02-26T23:19:28.638Z,5.70
2019-02-26T23:22:29.831Z,5.70
2019-02-26T23:25:30.985Z,5.80
2019-02-26T23:28:31.985Z,5.80
2019-02-26T23:31:33.465Z,5.80
2019-02-26T23:38:14.872Z,5.60
2019-02-26T23:41:14.793Z,5.50
2019-02-26T23:44:18.110Z,5.60
2019-02-26T23:47:19.163Z,5.60
2019-02-26T23:50:20.585Z,5.50
2019-02-26T23:56:30.613Z,5.50
2019-02-26T23:59:31.890Z,5.40
